Mayfield, Utah
Current Conditions -  °F | °C
As of 3:55 PM on Saturday 25 Oct 2014 (Local Time) from KDTA Reporting Station
Clear Clear  
Wind Chill: 76°   Ceiling: Unl
Heat Index: 77°   Visibility: 10mi
Dew Point: 34°   Wind: 26mph
Humidity: 22%   Direction: 210°SSW
Pressure: 30.03"   Gusts: 35mph
Location:  39.11°N, 111.71°W
Report Text: KDTA 252155Z AUTO 21023G30KT 10SM CLR 25/01 A3003 RMK AO1 T02460013
Loading
Personal Weather Stations






























Interactive Weather Map
Tropical Storm Tracking
New forecast layout! Learn more

10-Day Weather Forecast

Advertisements
Track Severe Weather on mobile